Salt Lake City International Airport
KSLC : now visible

Airfield :











YOU CAN JOIN US ON...

 
LOGIN :

Register | Disclaimer

   EN    FR    IT 

 









Legend :    VFR   Marginal VFR   IFR   Intensive IFR   Very Intensive IFR
Visi :
Ceiling :
>= 8 km
>= 3000ft
5 to 8 km
1000 to 3000 ft
1500m to 5 km
500 to 1000 ft
800 to 1500m
200 to 500 ft
< 800m
< 200 ft
Symbols :   Thunderstorms  Fog  Heavy snow  Heavy precipitations  Wind > 20 kt






- Airport Elevation : 4227 ft
- IATA code : SLC


KSLC - Salt Lake City International

CURRENT METAR :
  • 170354Z 17005KT 6SM -RA BR FEW015 BKN038 BKN048 04/03 A3004 RMK AO2 RAB0256E07B46 SLP176 P0001 T00390028 $

EXPIRED METARs :
  • 170254Z 21003KT 10SM BKN042 BKN050 BKN065 04/03 A3004 RMK AO2 RAB24E46 SLP175 VCSH P0000 60002 T00390028 51013 $
  • 170154Z 00000KT 10SM FEW015 BKN039 BKN049 04/02 A3003 RMK AO2 WSHFT 0106 RAE19 SLP171 P0001 T00390022 $
  • 170126Z 04011KT 10SM FEW012 BKN024 BKN050 03/02 A3003 RMK AO2 WSHFT 0106 RAE19 P0001 T00330022 $
  • 170113Z 36011KT 10SM -RA FEW012 BKN024 BKN050 04/02 A3003 RMK AO2 WSHFT 0053 P0001 T00390022 $

TAF KSLC
Valid from the 17 at 03:00 until the 18 at 06:00 UTC


170259Z 1703/1806 33006KT P6SM VCSH SCT020 BKN040
FM171200 33006KT P6SM SCT060 BKN120



MET'MAP, your aeronautical weather chart ! - Copyright ORBIFLY December 2007 - Disclaimer

ORBIFLY MET'MAP TEAM :

Programming & Development : Alexandra Zaïnal
Concept & original design : Baudouin d'Aumeries
Assistance for programming : Marc-Olivier Méhu
Technical & hardware support : Manuel Goepfert

Contact : metmap@orbifly.com




SOURCES & CREDITS :

   NOAA       Earth
Advisory